Time;durP1;ratioP1;P1;durP2;ratioP2;P2;SDS_P1;SDS_P2;PMS_P1;PMS_P2;Temp;Humidity;BMP_temperature;BMP_pressure;BME280_temperature;BME280_humidity;BME280_pressure;Samples;Min_cycle;Max_cycle;Signal;HPM_P1;HPM_P2
2022/03/14 00:00:58;;;;;;;7.13;2.88;;;;;;;;;;5033331;28;20559;-72
2022/03/14 00:03:25;;;;;;;6.38;2.85;;;;;;;;;;5029756;28;20055;-73
2022/03/14 00:05:52;;;;;;;5.68;3.13;;;;;;;;;;5034109;28;20022;-72
2022/03/14 00:08:21;;;;;;;3.83;2.30;;;;;;;;;;5032672;28;20509;-72
2022/03/14 00:10:49;;;;;;;4.80;2.67;;;;;;;;;;5031966;28;20029;-73
2022/03/14 00:13:17;;;;;;;5.90;2.47;;;;;;;;;;5032003;28;20030;-73
2022/03/14 00:15:44;;;;;;;7.50;2.20;;;;;;;;;;5032045;28;20492;-72
2022/03/14 00:18:11;;;;;;;5.47;2.00;;;;;;;;;;5029874;28;20033;-72
2022/03/14 00:20:39;;;;;;;6.38;2.53;;;;;;;;;;5036644;28;20028;-72
2022/03/14 00:23:05;;;;;;;4.55;2.35;;;;;;;;;;5037380;28;20036;-72
2022/03/14 00:25:32;;;;;;;2.60;1.63;;;;;;;;;;5037556;28;20029;-72
2022/03/14 00:27:58;;;;;;;4.05;2.00;;;;;;;;;;5037272;28;20028;-73
2022/03/14 00:30:25;;;;;;;3.42;1.92;;;;;;;;;;5031867;28;20030;-72
2022/03/14 00:32:52;;;;;;;7.18;1.60;;;;;;;;;;5037828;28;20041;-72
2022/03/14 00:35:18;;;;;;;2.80;1.40;;;;;;;;;;5036197;28;20029;-72
2022/03/14 00:37:44;;;;;;;3.55;1.13;;;;;;;;;;5037326;28;20033;-73
2022/03/14 00:40:11;;;;;;;3.70;2.05;;;;;;;;;;5034743;28;20516;-72
2022/03/14 00:42:39;;;;;;;3.25;2.00;;;;;;;;;;5048136;28;20044;-72
2022/03/14 00:45:06;;;;;;;3.38;1.73;;;;;;;;;;5033765;28;20030;-73
2022/03/14 00:47:32;;;;;;;3.92;1.52;;;;;;;;;;5039065;28;20034;-72
2022/03/14 00:49:59;;;;;;;3.75;1.95;;;;;;;;;;5035161;28;20501;-72
2022/03/14 00:52:26;;;;;;;8.18;2.63;;;;;;;;;;5035606;28;20044;-73
2022/03/14 00:54:52;;;;;;;5.22;1.83;;;;;;;;;;5036828;28;20037;-72
2022/03/14 00:57:19;;;;;;;3.88;1.75;;;;;;;;;;5032642;28;20030;-73
2022/03/14 00:59:45;;;;;;;3.38;1.38;;;;;;;;;;5038460;28;20499;-72
2022/03/14 01:02:12;;;;;;;1.80;1.13;;;;;;;;;;5036434;28;20029;-73
2022/03/14 01:04:38;;;;;;;1.92;1.20;;;;;;;;;;5036640;28;20029;-73
2022/03/14 01:07:05;;;;;;;3.00;1.20;;;;;;;;;;5036687;28;20497;-72
2022/03/14 01:09:31;;;;;;;5.50;0.93;;;;;;;;;;5033681;28;20412;-73
2022/03/14 01:11:58;;;;;;;1.92;1.10;;;;;;;;;;5036025;28;20078;-73
2022/03/14 01:14:24;;;;;;;3.17;1.25;;;;;;;;;;5037342;28;20026;-72
2022/03/14 01:16:51;;;;;;;1.65;0.90;;;;;;;;;;5036392;28;20036;-72
2022/03/14 01:19:19;;;;;;;2.22;1.38;;;;;;;;;;5036211;28;20025;-72
2022/03/14 01:21:46;;;;;;;2.13;1.00;;;;;;;;;;5035527;28;20033;-73
2022/03/14 01:24:12;;;;;;;2.90;1.60;;;;;;;;;;5032616;28;20380;-73
2022/03/14 01:26:39;;;;;;;2.53;1.60;;;;;;;;;;5037984;28;20490;-73
2022/03/14 01:29:07;;;;;;;3.13;1.88;;;;;;;;;;5034638;28;20030;-72
2022/03/14 01:31:34;;;;;;;5.88;1.67;;;;;;;;;;5033620;28;20044;-72
2022/03/14 01:34:00;;;;;;;4.93;2.45;;;;;;;;;;5035530;28;20033;-73
2022/03/14 01:36:27;;;;;;;11.75;3.00;;;;;;;;;;5032549;28;20051;-73
2022/03/14 01:38:53;;;;;;;6.40;2.65;;;;;;;;;;5036558;28;20031;-72
2022/03/14 01:41:22;;;;;;;3.22;1.95;;;;;;;;;;5043826;28;20053;-73
2022/03/14 01:43:49;;;;;;;5.93;2.65;;;;;;;;;;5039042;28;20033;-73
2022/03/14 01:46:16;;;;;;;4.53;2.60;;;;;;;;;;5036120;28;20030;-73
2022/03/14 01:48:46;;;;;;;8.32;3.03;;;;;;;;;;5034561;28;20027;-72
2022/03/14 01:51:13;;;;;;;7.70;3.25;;;;;;;;;;5032028;28;20014;-73
2022/03/14 01:53:40;;;;;;;3.33;1.83;;;;;;;;;;5036380;28;20041;-72
2022/03/14 01:56:07;;;;;;;3.13;1.63;;;;;;;;;;5035743;28;20020;-73
2022/03/14 01:58:33;;;;;;;2.38;1.13;;;;;;;;;;5034138;28;20026;-73
2022/03/14 02:01:00;;;;;;;2.30;1.25;;;;;;;;;;5035633;28;20496;-72
2022/03/14 02:03:27;;;;;;;4.05;1.52;;;;;;;;;;5032077;28;20029;-73
2022/03/14 02:05:55;;;;;;;2.08;1.05;;;;;;;;;;5036008;28;20022;-73
2022/03/14 02:08:21;;;;;;;2.55;1.17;;;;;;;;;;5034944;28;20025;-72
2022/03/14 02:10:48;;;;;;;1.80;1.35;;;;;;;;;;5032420;28;20449;-73
2022/03/14 02:13:14;;;;;;;4.32;1.42;;;;;;;;;;5034977;28;20025;-73
2022/03/14 02:15:41;;;;;;;1.52;1.00;;;;;;;;;;5033793;28;20508;-73
2022/03/14 02:18:07;;;;;;;3.88;1.70;;;;;;;;;;5032243;28;20033;-73
2022/03/14 02:20:34;;;;;;;3.85;1.13;;;;;;;;;;5037223;28;20536;-72
2022/03/14 02:23:01;;;;;;;3.63;1.17;;;;;;;;;;5035317;28;20033;-72
2022/03/14 02:25:27;;;;;;;5.60;1.42;;;;;;;;;;5035210;28;20040;-73
2022/03/14 02:27:54;;;;;;;2.33;1.30;;;;;;;;;;5034551;28;20401;-73
2022/03/14 02:30:22;;;;;;;1.70;0.98;;;;;;;;;;5031057;28;20079;-73
2022/03/14 02:32:49;;;;;;;1.25;0.82;;;;;;;;;;5036252;28;20033;-72
2022/03/14 02:35:15;;;;;;;2.45;1.23;;;;;;;;;;5033594;28;20029;-72
2022/03/14 02:37:44;;;;;;;2.35;1.15;;;;;;;;;;5035257;28;20032;-72
2022/03/14 02:40:10;;;;;;;1.98;0.90;;;;;;;;;;5032044;28;20033;-72
2022/03/14 02:42:37;;;;;;;1.15;1.00;;;;;;;;;;5044822;28;20030;-73
2022/03/14 02:45:04;;;;;;;0.98;0.63;;;;;;;;;;5032922;28;20394;-73
2022/03/14 02:47:31;;;;;;;1.55;0.90;;;;;;;;;;5034554;28;20045;-73
2022/03/14 02:49:57;;;;;;;1.40;1.00;;;;;;;;;;5032997;28;20034;-72
2022/03/14 02:52:23;;;;;;;2.20;0.85;;;;;;;;;;5034582;28;20517;-73
2022/03/14 02:54:50;;;;;;;1.20;0.88;;;;;;;;;;5032547;28;20531;-73
2022/03/14 02:57:16;;;;;;;1.17;0.85;;;;;;;;;;5030307;28;20034;-73
2022/03/14 02:59:43;;;;;;;1.55;0.98;;;;;;;;;;5035460;28;20052;-73
2022/03/14 03:02:10;;;;;;;2.75;1.63;;;;;;;;;;5034628;28;20025;-73
2022/03/14 03:04:36;;;;;;;2.35;1.20;;;;;;;;;;5034667;28;20502;-73
2022/03/14 03:07:03;;;;;;;2.80;1.35;;;;;;;;;;5034581;28;20024;-73
2022/03/14 03:09:30;;;;;;;5.38;1.52;;;;;;;;;;5030739;28;20052;-72
2022/03/14 03:11:56;;;;;;;4.05;1.45;;;;;;;;;;5033965;28;20020;-73
2022/03/14 03:14:23;;;;;;;2.22;1.35;;;;;;;;;;5035141;28;20048;-73
2022/03/14 03:16:49;;;;;;;3.10;1.40;;;;;;;;;;5034114;28;20029;-72
2022/03/14 03:19:16;;;;;;;1.70;0.80;;;;;;;;;;5034131;28;20469;-73
2022/03/14 03:21:42;;;;;;;2.42;0.98;;;;;;;;;;5032909;28;20017;-73
2022/03/14 03:24:09;;;;;;;3.00;1.15;;;;;;;;;;5030586;28;20063;-73
2022/03/14 03:26:38;;;;;;;1.67;0.98;;;;;;;;;;5034491;28;20033;-72
2022/03/14 03:29:09;;;;;;;2.38;1.05;;;;;;;;;;5032443;28;20024;-72
2022/03/14 03:31:35;;;;;;;;;;;;;;;;;;5034160;28;20029;-73
2022/03/14 03:34:01;;;;;;;1.38;1.08;;;;;;;;;;5033776;28;19919;-73
2022/03/14 03:36:28;;;;;;;1.45;0.80;;;;;;;;;;5030713;28;20017;-73
2022/03/14 03:38:56;;;;;;;6.13;0.88;;;;;;;;;;5033708;28;20031;-73
2022/03/14 03:41:23;;;;;;;2.00;1.05;;;;;;;;;;5042716;28;20037;-72
2022/03/14 03:43:49;;;;;;;0.82;0.60;;;;;;;;;;5037009;28;20025;-72
2022/03/14 03:46:16;;;;;;;2.03;1.05;;;;;;;;;;5033945;28;20032;-73
2022/03/14 03:48:42;;;;;;;1.00;0.85;;;;;;;;;;5032391;28;20020;-73
2022/03/14 03:51:08;;;;;;;1.35;0.80;;;;;;;;;;5030369;28;20036;-73
2022/03/14 03:53:35;;;;;;;1.90;0.90;;;;;;;;;;5067006;28;20048;-73
2022/03/14 03:56:01;;;;;;;2.55;1.05;;;;;;;;;;5032652;28;20018;-73
2022/03/14 03:58:27;;;;;;;0.57;0.57;;;;;;;;;;5033558;28;20039;-73
2022/03/14 04:00:54;;;;;;;2.20;1.00;;;;;;;;;;5033540;28;20017;-72
2022/03/14 04:03:20;;;;;;;2.33;1.20;;;;;;;;;;5027805;28;20512;-73
2022/03/14 04:05:47;;;;;;;0.85;0.70;;;;;;;;;;5035223;28;20029;-73
2022/03/14 04:08:14;;;;;;;2.20;0.73;;;;;;;;;;5031624;28;20033;-73
2022/03/14 04:10:43;;;;;;;1.40;1.08;;;;;;;;;;5033348;28;20075;-73
2022/03/14 04:13:10;;;;;;;1.55;1.02;;;;;;;;;;5033587;28;20086;-73
2022/03/14 04:15:52;;;;;;;1.25;1.13;;;;;;;;;;5031346;28;20020;-73
2022/03/14 04:18:25;;;;;;;1.98;1.10;;;;;;;;;;5013604;28;20030;-73
2022/03/14 04:20:52;;;;;;;0.73;0.60;;;;;;;;;;5042947;28;20025;-72
2022/03/14 04:23:19;;;;;;;0.65;0.65;;;;;;;;;;5032040;28;20029;-73
2022/03/14 04:25:46;;;;;;;1.60;1.00;;;;;;;;;;5033343;28;20417;-72
2022/03/14 04:28:13;;;;;;;1.60;0.82;;;;;;;;;;5033092;28;20044;-73
2022/03/14 04:30:40;;;;;;;2.40;1.08;;;;;;;;;;5031478;28;20018;-72
2022/03/14 04:33:08;;;;;;;0.60;0.60;;;;;;;;;;5030251;28;20037;-73
2022/03/14 04:35:35;;;;;;;1.05;0.60;;;;;;;;;;5035067;28;20040;-73
2022/03/14 04:38:02;;;;;;;1.63;0.98;;;;;;;;;;5032876;28;20075;-73
2022/03/14 04:40:29;;;;;;;1.88;0.93;;;;;;;;;;5032343;28;20071;-72
2022/03/14 04:42:55;;;;;;;2.90;0.82;;;;;;;;;;5042804;28;20033;-73
2022/03/14 04:45:22;;;;;;;1.30;0.90;;;;;;;;;;5027479;28;20036;-73
2022/03/14 04:47:48;;;;;;;0.98;0.80;;;;;;;;;;5034702;28;20025;-72
2022/03/14 04:50:16;;;;;;;2.63;1.10;;;;;;;;;;5031606;28;20036;-73
2022/03/14 04:52:43;;;;;;;0.75;0.63;;;;;;;;;;5032440;28;20017;-73
2022/03/14 04:55:11;;;;;;;0.70;0.60;;;;;;;;;;5032889;28;20044;-73
2022/03/14 04:57:37;;;;;;;1.23;0.80;;;;;;;;;;5030869;28;20417;-73
2022/03/14 05:00:08;;;;;;;2.78;1.08;;;;;;;;;;5030553;28;20486;-72
2022/03/14 05:02:34;;;;;;;0.83;0.83;;;;;;;;;;5033238;28;20401;-73
2022/03/14 05:05:01;;;;;;;1.60;0.90;;;;;;;;;;5032935;28;20033;-72
2022/03/14 05:07:27;;;;;;;2.17;1.30;;;;;;;;;;5034934;28;20083;-72
2022/03/14 05:09:54;;;;;;;1.85;1.10;;;;;;;;;;5036583;28;20037;-73
2022/03/14 05:12:20;;;;;;;3.53;1.10;;;;;;;;;;5032093;28;20028;-73
2022/03/14 05:14:50;;;;;;;1.25;0.90;;;;;;;;;;5038236;28;20040;-73
2022/03/14 05:17:17;;;;;;;2.25;1.00;;;;;;;;;;5036751;28;20025;-72
2022/03/14 05:19:43;;;;;;;2.33;1.15;;;;;;;;;;5036162;28;20021;-73
2022/03/14 05:22:10;;;;;;;2.17;1.20;;;;;;;;;;5034912;28;20031;-73
2022/03/14 05:24:37;;;;;;;2.33;1.20;;;;;;;;;;5033004;28;20513;-73
2022/03/14 05:27:03;;;;;;;1.75;1.25;;;;;;;;;;5033132;28;20026;-73
2022/03/14 05:29:29;;;;;;;7.03;1.30;;;;;;;;;;5067583;28;20055;-72
2022/03/14 05:31:56;;;;;;;1.92;1.20;;;;;;;;;;5035878;28;20029;-73
2022/03/14 05:34:22;;;;;;;1.38;1.00;;;;;;;;;;5035707;28;20102;-73
2022/03/14 05:36:48;;;;;;;3.83;1.38;;;;;;;;;;5035692;28;20074;-73
2022/03/14 05:39:15;;;;;;;2.42;1.25;;;;;;;;;;5032205;28;20437;-73
2022/03/14 05:41:42;;;;;;;1.02;0.75;;;;;;;;;;5048309;28;20052;-73
2022/03/14 05:44:08;;;;;;;2.05;1.08;;;;;;;;;;5036711;28;20029;-72
2022/03/14 05:46:35;;;;;;;3.83;1.50;;;;;;;;;;5035772;28;20036;-73
2022/03/14 05:49:01;;;;;;;1.85;1.05;;;;;;;;;;5035398;28;20043;-72
2022/03/14 05:51:27;;;;;;;2.63;1.02;;;;;;;;;;5031146;28;20528;-73
2022/03/14 05:53:54;;;;;;;4.35;1.05;;;;;;;;;;5035791;28;20049;-73
2022/03/14 05:56:20;;;;;;;2.33;1.17;;;;;;;;;;5036441;28;20017;-72
2022/03/14 05:58:47;;;;;;;2.03;1.10;;;;;;;;;;5035799;28;20029;-73
2022/03/14 06:01:13;;;;;;;1.27;0.88;;;;;;;;;;5034456;28;20025;-72
2022/03/14 06:03:40;;;;;;;2.20;1.50;;;;;;;;;;5032156;28;20032;-73
2022/03/14 06:06:06;;;;;;;1.00;0.82;;;;;;;;;;5032787;28;20026;-73
2022/03/14 06:08:33;;;;;;;2.92;1.65;;;;;;;;;;5037673;28;20033;-73
2022/03/14 06:10:59;;;;;;;2.65;1.27;;;;;;;;;;5035542;28;20024;-73
2022/03/14 06:13:25;;;;;;;1.85;1.05;;;;;;;;;;5035352;28;20036;-73
2022/03/14 06:15:52;;;;;;;4.18;1.85;;;;;;;;;;5035317;28;20406;-73
2022/03/14 06:18:19;;;;;;;7.63;2.00;;;;;;;;;;5030013;28;20026;-73
2022/03/14 06:20:45;;;;;;;2.65;1.45;;;;;;;;;;5048030;28;20041;-73
2022/03/14 06:23:15;;;;;;;2.92;1.50;;;;;;;;;;5035825;28;20017;-73
2022/03/14 06:25:41;;;;;;;2.20;1.33;;;;;;;;;;5035102;28;20029;-73
2022/03/14 06:28:08;;;;;;;2.30;1.50;;;;;;;;;;5034963;28;20413;-73
2022/03/14 06:30:34;;;;;;;2.28;1.23;;;;;;;;;;5032654;28;20372;-72
2022/03/14 06:33:01;;;;;;;3.78;1.25;;;;;;;;;;5033452;28;20037;-73
2022/03/14 06:35:27;;;;;;;1.38;1.10;;;;;;;;;;5036364;28;20029;-72
2022/03/14 06:37:54;;;;;;;3.50;1.75;;;;;;;;;;5034828;28;20037;-72
2022/03/14 06:40:21;;;;;;;5.05;2.10;;;;;;;;;;5033914;28;20375;-73
2022/03/14 06:42:51;;;;;;;2.55;1.45;;;;;;;;;;5044476;28;20025;-73
2022/03/14 06:45:24;;;;;;;2.33;1.40;;;;;;;;;;5028991;28;20508;-73
2022/03/14 06:47:52;;;;;;;4.40;1.27;;;;;;;;;;5043915;28;20025;-73
2022/03/14 06:50:18;;;;;;;3.15;1.70;;;;;;;;;;5033510;28;20246;-73
2022/03/14 06:52:45;;;;;;;5.53;1.65;;;;;;;;;;5034493;28;20394;-73
2022/03/14 06:55:11;;;;;;;2.90;1.63;;;;;;;;;;5034588;28;20035;-73
2022/03/14 06:57:40;;;;;;;3.28;1.85;;;;;;;;;;5032409;28;20494;-73
2022/03/14 07:00:07;;;;;;;4.47;2.03;;;;;;;;;;5031762;28;20036;-73
2022/03/14 07:02:35;;;;;;;5.50;2.97;;;;;;;;;;5036090;28;20029;-73
2022/03/14 07:05:02;;;;;;;6.50;2.55;;;;;;;;;;5034599;28;20025;-73
2022/03/14 07:07:28;;;;;;;5.18;2.55;;;;;;;;;;5034397;28;20026;-73
2022/03/14 07:09:54;;;;;;;4.20;2.03;;;;;;;;;;5033906;28;20420;-72
2022/03/14 07:12:21;;;;;;;6.38;2.03;;;;;;;;;;5029940;28;20032;-73
2022/03/14 07:14:47;;;;;;;2.67;1.40;;;;;;;;;;5040860;28;20049;-73
2022/03/14 07:17:14;;;;;;;6.90;2.30;;;;;;;;;;5033335;28;20406;-73
2022/03/14 07:19:45;;;;;;;2.65;1.70;;;;;;;;;;5032954;28;20393;-72
2022/03/14 07:22:17;;;;;;;2.80;1.58;;;;;;;;;;5030965;28;20487;-73
2022/03/14 07:24:45;;;;;;;3.88;1.88;;;;;;;;;;5043575;28;20389;-72
2022/03/14 07:27:12;;;;;;;2.38;1.88;;;;;;;;;;5033775;28;20044;-73
2022/03/14 07:29:39;;;;;;;4.03;2.40;;;;;;;;;;5035343;28;20509;-73
2022/03/14 07:32:05;;;;;;;7.72;3.63;;;;;;;;;;5035551;28;20027;-73
2022/03/14 07:34:32;;;;;;;6.80;3.25;;;;;;;;;;5038282;28;20046;-73
2022/03/14 07:36:58;;;;;;;4.90;2.67;;;;;;;;;;5031259;28;20031;-72
2022/03/14 07:39:24;;;;;;;3.53;2.20;;;;;;;;;;5028405;28;20836;-72
2022/03/14 07:41:51;;;;;;;6.00;2.58;;;;;;;;;;5030613;28;20051;-73
2022/03/14 07:44:17;;;;;;;3.00;2.10;;;;;;;;;;5033695;28;20029;-72
2022/03/14 07:46:43;;;;;;;4.50;3.25;;;;;;;;;;5031452;28;20048;-72
2022/03/14 07:49:10;;;;;;;4.20;3.00;;;;;;;;;;5036867;28;20033;-73
2022/03/14 07:51:36;;;;;;;11.80;3.45;;;;;;;;;;5027290;28;20494;-71
2022/03/14 07:54:03;;;;;;;5.88;2.20;;;;;;;;;;4999801;28;20096;-72
2022/03/14 07:56:29;;;;;;;3.42;2.10;;;;;;;;;;4993834;28;20038;-73
2022/03/14 07:58:56;;;;;;;3.95;2.13;;;;;;;;;;5010816;28;20025;-73
2022/03/14 08:01:22;;;;;;;3.08;2.10;;;;;;;;;;4995892;28;20036;-73
2022/03/14 08:03:49;;;;;;;5.47;3.00;;;;;;;;;;4993137;28;20026;-73
2022/03/14 08:06:22;;;;;;;4.00;2.33;;;;;;;;;;5004231;28;20037;-73
2022/03/14 08:08:55;;;;;;;13.82;2.80;;;;;;;;;;5002553;28;20034;-72
2022/03/14 08:11:28;;;;;;;5.10;2.65;;;;;;;;;;4993707;28;20040;-72
2022/03/14 08:13:54;;;;;;;6.50;3.33;;;;;;;;;;4997855;28;20030;-72
2022/03/14 08:16:20;;;;;;;18.40;3.83;;;;;;;;;;4999864;28;20031;-71
2022/03/14 08:18:47;;;;;;;6.85;3.58;;;;;;;;;;4991493;28;20513;-71
2022/03/14 08:21:14;;;;;;;6.65;4.03;;;;;;;;;;4989859;28;20045;-73
2022/03/14 08:23:41;;;;;;;6.28;3.00;;;;;;;;;;4995534;28;20035;-72
2022/03/14 11:38:57;;;;;;;11.27;5.90;;;;;;;;;;5107188;27;20337;-75
2022/03/14 11:41:25;;;;;;;10.82;5.53;;;;;;;;;;5088888;28;20046;-74
2022/03/14 11:43:51;;;;;;;11.10;5.20;;;;;;;;;;5073498;28;20020;-76
2022/03/14 11:46:17;;;;;;;11.40;6.22;;;;;;;;;;5087064;28;20016;-77
2022/03/14 11:48:44;;;;;;;8.52;4.63;;;;;;;;;;5086859;28;20028;-74
2022/03/14 11:51:11;;;;;;;17.60;5.65;;;;;;;;;;5086900;28;20038;-73
2022/03/14 11:53:47;;;;;;;12.43;5.10;;;;;;;;;;5074135;28;20036;-74
2022/03/14 11:56:14;;;;;;;10.80;4.97;;;;;;;;;;5086941;28;20033;-74
2022/03/14 11:58:53;;;;;;;7.82;4.60;;;;;;;;;;5086883;28;20400;-74
2022/03/14 12:01:23;;;;;;;16.65;5.10;;;;;;;;;;5087168;28;20016;-74
2022/03/14 12:03:54;;;;;;;14.00;5.55;;;;;;;;;;5086998;28;20025;-74
2022/03/14 12:06:39;;;;;;;12.50;5.50;;;;;;;;;;5070797;28;20024;-74
2022/03/14 12:09:06;;;;;;;12.55;5.82;;;;;;;;;;5099031;28;20024;-74
2022/03/14 12:11:37;;;;;;;13.77;6.10;;;;;;;;;;5084651;28;20634;-74
2022/03/14 12:14:04;;;;;;;13.05;6.68;;;;;;;;;;5086655;28;20036;-74
2022/03/14 12:16:41;;;;;;;12.05;6.55;;;;;;;;;;5086543;28;20035;-74
2022/03/14 12:19:27;;;;;;;13.13;6.93;;;;;;;;;;5086932;28;20020;-74
2022/03/14 12:21:54;;;;;;;13.02;6.88;;;;;;;;;;5086620;28;20078;-76
2022/03/14 12:24:42;;;;;;;13.57;7.72;;;;;;;;;;5073126;28;20013;-77
2022/03/14 12:27:18;;;;;;;9.50;6.05;;;;;;;;;;5046848;28;20523;-74
2022/03/14 12:29:45;;;;;;;13.73;7.45;;;;;;;;;;5085891;28;20054;-81
2022/03/14 12:32:27;;;;;;;10.60;6.22;;;;;;;;;;5085840;28;20024;-79
2022/03/14 12:35:01;;;;;;;13.70;7.13;;;;;;;;;;5070774;28;20033;-79
2022/03/14 12:37:37;;;;;;;14.77;6.72;;;;;;;;;;5085286;28;20037;-81
2022/03/14 12:40:05;;;;;;;20.08;7.13;;;;;;;;;;5071194;28;20032;-81
2022/03/14 12:42:42;;;;;;;11.40;6.70;;;;;;;;;;5090756;28;20020;-83
2022/03/14 12:45:16;;;;;;;14.50;6.63;;;;;;;;;;5085450;28;20457;-80
2022/03/14 12:47:43;;;;;;;16.63;7.25;;;;;;;;;;5086389;28;20028;-81
2022/03/14 12:50:10;;;;;;;11.27;7.32;;;;;;;;;;5071546;28;20028;-80
2022/03/14 12:52:55;;;;;;;10.32;6.72;;;;;;;;;;5071761;28;20020;-78
2022/03/14 12:55:22;;;;;;;12.30;6.70;;;;;;;;;;5071501;28;20404;-79
2022/03/14 12:57:52;;;;;;;11.15;5.93;;;;;;;;;;5071210;28;20409;-78
2022/03/14 13:00:19;;;;;;;13.00;5.93;;;;;;;;;;5072183;28;20700;-78
2022/03/14 13:02:45;;;;;;;11.40;6.35;;;;;;;;;;5060464;28;20036;-77
2022/03/14 13:05:11;;;;;;;11.93;6.20;;;;;;;;;;5069328;28;20514;-77
2022/03/14 13:07:38;;;;;;;11.02;5.07;;;;;;;;;;5070594;28;20039;-77
2022/03/14 13:10:06;;;;;;;11.23;6.40;;;;;;;;;;5071305;28;20020;-76
2022/03/14 13:12:33;;;;;;;7.85;4.93;;;;;;;;;;5072800;28;20043;-71
2022/03/14 13:15:06;;;;;;;16.63;5.97;;;;;;;;;;5073124;28;20036;-71
2022/03/14 13:17:32;;;;;;;10.45;5.80;;;;;;;;;;5068469;28;20028;-69
2022/03/14 13:19:59;;;;;;;11.65;5.55;;;;;;;;;;5070432;28;20039;-69
2022/03/14 13:22:26;;;;;;;10.65;5.25;;;;;;;;;;5071584;28;20388;-70
2022/03/14 13:24:53;;;;;;;7.75;3.78;;;;;;;;;;5071599;28;20032;-72
2022/03/14 13:27:24;;;;;;;7.15;3.60;;;;;;;;;;5063797;28;20048;-70
2022/03/14 13:29:51;;;;;;;4.88;2.45;;;;;;;;;;5067068;28;20392;-75
2022/03/14 13:32:18;;;;;;;3.85;2.20;;;;;;;;;;5059401;28;20043;-73
2022/03/14 13:34:45;;;;;;;4.13;1.98;;;;;;;;;;5070108;28;20038;-73
2022/03/14 13:37:12;;;;;;;5.85;2.40;;;;;;;;;;5070608;28;20424;-72
2022/03/14 13:39:41;;;;;;;6.38;2.67;;;;;;;;;;5070609;28;20024;-73
2022/03/14 13:42:07;;;;;;;4.45;2.10;;;;;;;;;;5052394;28;20029;-73
2022/03/14 13:44:34;;;;;;;4.47;1.83;;;;;;;;;;5071381;28;20036;-72
2022/03/14 13:47:02;;;;;;;3.50;2.08;;;;;;;;;;5070503;28;20054;-73
2022/03/14 13:49:31;;;;;;;2.83;2.10;;;;;;;;;;5070050;28;20028;-74
2022/03/14 13:51:59;;;;;;;2.13;1.80;;;;;;;;;;5070488;28;20438;-74
2022/03/14 13:54:27;;;;;;;2.95;1.83;;;;;;;;;;5070390;28;20023;-74
2022/03/14 13:57:00;;;;;;;3.47;2.17;;;;;;;;;;5069266;28;20031;-73
2022/03/14 13:59:29;;;;;;;2.50;2.10;;;;;;;;;;5070440;28;20037;-73
2022/03/14 14:01:56;;;;;;;4.65;1.85;;;;;;;;;;5069516;28;20021;-73
2022/03/14 14:04:27;;;;;;;7.10;2.05;;;;;;;;;;5069324;28;20059;-74
2022/03/14 14:06:55;;;;;;;7.53;1.98;;;;;;;;;;5070042;28;20035;-72
2022/03/14 14:09:25;;;;;;;4.18;1.90;;;;;;;;;;5054683;28;20332;-73
2022/03/14 14:12:15;;;;;;;2.78;1.80;;;;;;;;;;5070093;28;20039;-73
2022/03/14 14:14:42;;;;;;;2.42;2.00;;;;;;;;;;5069506;28;20037;-74
2022/03/14 14:17:09;;;;;;;4.53;2.05;;;;;;;;;;5071284;28;20035;-71
2022/03/14 14:19:36;;;;;;;5.43;2.50;;;;;;;;;;5069682;28;20519;-73
2022/03/14 14:22:02;;;;;;;3.20;2.40;;;;;;;;;;5069871;28;20055;-77
2022/03/14 14:24:29;;;;;;;4.25;2.88;;;;;;;;;;5069764;28;20039;-76
2022/03/14 14:26:55;;;;;;;2.53;2.33;;;;;;;;;;5069164;28;20515;-76
2022/03/14 14:29:40;;;;;;;2.50;2.17;;;;;;;;;;5070438;28;20043;-77
2022/03/14 14:32:17;;;;;;;3.05;2.50;;;;;;;;;;5055869;28;20032;-77
2022/03/14 14:34:43;;;;;;;2.47;2.28;;;;;;;;;;5069833;28;20051;-76
2022/03/14 14:37:13;;;;;;;3.05;2.25;;;;;;;;;;5069578;28;20041;-77
2022/03/14 14:39:41;;;;;;;4.68;2.35;;;;;;;;;;5061146;28;20031;-76
2022/03/14 14:42:07;;;;;;;3.75;2.33;;;;;;;;;;5068865;28;20058;-76
2022/03/14 14:44:34;;;;;;;2.33;2.10;;;;;;;;;;5070150;28;20028;-76
2022/03/14 14:47:01;;;;;;;2.38;2.00;;;;;;;;;;5068963;28;20443;-73
2022/03/14 14:49:28;;;;;;;2.50;2.30;;;;;;;;;;5055754;28;20054;-74
2022/03/14 14:51:56;;;;;;;2.97;2.28;;;;;;;;;;5069581;28;20020;-74
2022/03/14 14:54:23;;;;;;;4.65;2.60;;;;;;;;;;5053403;28;20028;-76
2022/03/14 14:56:50;;;;;;;4.18;2.65;;;;;;;;;;5065582;28;20021;-82
2022/03/14 14:59:17;;;;;;;5.22;2.33;;;;;;;;;;5069236;28;20032;-76
2022/03/14 15:01:44;;;;;;;2.30;2.10;;;;;;;;;;5068774;28;20016;-76
2022/03/14 15:04:12;;;;;;;3.47;2.60;;;;;;;;;;5069313;28;20036;-71
2022/03/14 15:06:38;;;;;;;6.03;2.63;;;;;;;;;;5068744;28;20070;-72
2022/03/14 15:09:06;;;;;;;4.60;2.75;;;;;;;;;;5069422;28;20036;-71
2022/03/14 15:11:35;;;;;;;5.18;3.33;;;;;;;;;;5069516;28;20047;-71
2022/03/14 15:14:02;;;;;;;3.40;2.58;;;;;;;;;;5069431;28;20526;-71
2022/03/14 15:16:28;;;;;;;5.05;3.25;;;;;;;;;;5055291;28;20020;-72
2022/03/14 15:18:55;;;;;;;3.13;2.83;;;;;;;;;;5069732;28;20117;-72
2022/03/14 15:21:22;;;;;;;2.97;2.67;;;;;;;;;;5065079;28;20024;-72
2022/03/14 15:23:49;;;;;;;3.33;2.90;;;;;;;;;;5065467;28;20037;-72
2022/03/14 15:26:15;;;;;;;3.53;3.10;;;;;;;;;;5068984;28;20044;-72
2022/03/14 15:28:43;;;;;;;7.05;3.38;;;;;;;;;;5054528;28;20043;-72
2022/03/14 15:31:10;;;;;;;4.63;3.25;;;;;;;;;;5068481;28;20081;-72
2022/03/14 15:33:36;;;;;;;4.93;3.63;;;;;;;;;;5069104;28;20017;-72
2022/03/14 15:36:03;;;;;;;4.15;3.35;;;;;;;;;;5068472;28;20021;-72
2022/03/14 15:38:30;;;;;;;4.78;4.13;;;;;;;;;;5069423;28;20563;-73
2022/03/14 15:40:59;;;;;;;7.97;4.40;;;;;;;;;;5070537;28;20029;-72
2022/03/14 15:43:25;;;;;;;5.05;3.03;;;;;;;;;;5068415;28;20069;-72
2022/03/14 15:45:52;;;;;;;4.47;3.63;;;;;;;;;;5067926;28;20486;-73
2022/03/14 15:48:18;;;;;;;7.70;4.13;;;;;;;;;;5068950;28;20047;-72
2022/03/14 15:50:44;;;;;;;4.75;3.30;;;;;;;;;;5069582;28;20020;-73
2022/03/14 15:53:11;;;;;;;4.55;3.85;;;;;;;;;;5068892;28;20029;-72
2022/03/14 15:55:37;;;;;;;6.45;4.85;;;;;;;;;;5069103;28;20036;-72
2022/03/14 15:58:05;;;;;;;5.70;4.90;;;;;;;;;;5068705;28;20028;-72
2022/03/14 16:00:32;;;;;;;6.43;5.07;;;;;;;;;;5068989;28;20022;-73
2022/03/14 16:02:58;;;;;;;7.82;5.90;;;;;;;;;;5069075;28;20021;-73
2022/03/14 16:05:24;;;;;;;9.43;5.18;;;;;;;;;;5067614;28;20366;-73
2022/03/14 16:07:51;;;;;;;10.57;5.30;;;;;;;;;;5069110;28;20062;-73
2022/03/14 16:10:18;;;;;;;7.78;6.20;;;;;;;;;;5068139;28;20463;-73
2022/03/14 16:12:44;;;;;;;12.00;5.85;;;;;;;;;;5068714;28;20028;-72
2022/03/14 16:15:11;;;;;;;11.18;5.93;;;;;;;;;;5068689;28;20024;-73
2022/03/14 16:17:38;;;;;;;9.68;5.85;;;;;;;;;;5070578;28;20024;-72
2022/03/14 16:20:08;;;;;;;11.32;6.70;;;;;;;;;;5069787;28;20017;-72
2022/03/14 16:22:35;;;;;;;8.65;6.25;;;;;;;;;;5069829;28;20024;-72
2022/03/14 16:25:01;;;;;;;13.13;7.07;;;;;;;;;;5072836;28;20032;-72
2022/03/14 16:27:28;;;;;;;10.18;6.30;;;;;;;;;;5055382;28;20024;-72
2022/03/14 16:29:54;;;;;;;11.38;7.10;;;;;;;;;;5073541;28;20073;-72
2022/03/14 16:32:21;;;;;;;11.00;6.95;;;;;;;;;;5073401;28;20024;-72
2022/03/14 16:34:47;;;;;;;9.80;6.63;;;;;;;;;;5073671;28;20037;-72
2022/03/14 16:37:13;;;;;;;13.38;7.72;;;;;;;;;;5073068;28;20037;-72
2022/03/14 16:39:40;;;;;;;8.68;6.78;;;;;;;;;;5073199;28;20025;-72
2022/03/14 16:42:07;;;;;;;11.20;6.97;;;;;;;;;;5073336;28;20039;-72
2022/03/14 16:44:34;;;;;;;8.45;5.28;;;;;;;;;;5058247;28;20028;-72
2022/03/14 16:47:01;;;;;;;9.10;5.72;;;;;;;;;;5073116;28;20122;-72
2022/03/14 16:49:31;;;;;;;11.07;6.45;;;;;;;;;;5073516;28;20032;-72
2022/03/14 16:51:58;;;;;;;8.45;5.93;;;;;;;;;;5073126;28;20030;-72
2022/03/14 16:54:25;;;;;;;12.88;6.35;;;;;;;;;;5073531;28;20024;-72
2022/03/14 16:56:51;;;;;;;8.30;5.60;;;;;;;;;;5074045;28;20031;-72
2022/03/14 16:59:18;;;;;;;7.43;5.20;;;;;;;;;;5060059;28;20036;-72
2022/03/14 17:01:45;;;;;;;13.27;6.30;;;;;;;;;;5073661;28;20023;-72
2022/03/14 17:04:12;;;;;;;11.82;7.18;;;;;;;;;;5073118;28;20032;-72
2022/03/14 17:06:39;;;;;;;12.73;5.85;;;;;;;;;;5073807;28;20016;-71
2022/03/14 17:09:07;;;;;;;8.40;5.28;;;;;;;;;;5073363;28;20093;-72
2022/03/14 17:11:34;;;;;;;11.13;5.60;;;;;;;;;;5071402;28;20024;-72
2022/03/14 17:14:00;;;;;;;9.60;5.85;;;;;;;;;;5059312;28;20036;-72
2022/03/14 17:16:27;;;;;;;10.75;5.47;;;;;;;;;;5073121;28;20034;-72
2022/03/14 17:18:53;;;;;;;7.50;4.70;;;;;;;;;;5073143;28;20029;-72
2022/03/14 17:21:20;;;;;;;16.33;9.25;;;;;;;;;;5073257;28;20029;-72
2022/03/14 17:23:47;;;;;;;8.93;5.18;;;;;;;;;;5073964;28;20021;-72
2022/03/14 17:26:13;;;;;;;11.30;4.90;;;;;;;;;;5072810;28;20553;-72
2022/03/14 17:28:39;;;;;;;7.88;4.85;;;;;;;;;;5059630;28;20037;-72
2022/03/14 17:31:06;;;;;;;10.45;4.93;;;;;;;;;;5057846;28;20028;-72
2022/03/14 17:33:32;;;;;;;6.53;4.13;;;;;;;;;;5072961;28;20025;-73
2022/03/14 17:35:59;;;;;;;12.35;5.28;;;;;;;;;;5073221;28;20028;-73
2022/03/14 17:38:30;;;;;;;7.65;4.07;;;;;;;;;;5072767;28;20047;-72
2022/03/14 17:40:56;;;;;;;7.00;4.32;;;;;;;;;;5072513;28;20024;-72
2022/03/14 17:43:22;;;;;;;9.95;4.80;;;;;;;;;;5073063;28;20020;-73
2022/03/14 17:45:49;;;;;;;7.38;4.40;;;;;;;;;;5072893;28;20023;-72
2022/03/14 17:48:16;;;;;;;7.20;3.78;;;;;;;;;;5072863;28;20039;-72
2022/03/14 17:50:42;;;;;;;6.00;3.72;;;;;;;;;;5059896;28;20032;-72
2022/03/14 17:53:09;;;;;;;7.93;4.07;;;;;;;;;;5072981;28;20031;-72
2022/03/14 17:55:35;;;;;;;4.90;3.55;;;;;;;;;;5072152;28;20020;-72